sensor_id;sensor_type;location;lat;lon;timestamp;temperature;humidity
1165;DHT22;571;50.930;6.926;2022-11-10T03:46:15;11.00;99.90
1165;DHT22;571;50.930;6.926;2022-11-10T03:48:42;11.10;99.90
1165;DHT22;571;50.930;6.926;2022-11-10T03:51:08;11.00;99.90
1165;DHT22;571;50.930;6.926;2022-11-10T03:53:35;10.90;99.90
1165;DHT22;571;50.930;6.926;2022-11-10T03:56:03;10.90;99.90
1165;DHT22;571;50.930;6.926;2022-11-10T03:58:30;10.90;99.90
1165;DHT22;571;50.930;6.926;2022-11-10T04:00:57;11.00;99.90
1165;DHT22;571;50.930;6.926;2022-11-10T04:03:25;11.10;99.90
1165;DHT22;571;50.930;6.926;2022-11-10T04:05:51;11.10;99.90
1165;DHT22;571;50.930;6.926;2022-11-10T04:08:36;11.00;99.90
1165;DHT22;571;50.930;6.926;2022-11-10T04:11:20;11.00;99.90
1165;DHT22;571;50.930;6.926;2022-11-10T04:14:00;11.00;99.90
1165;DHT22;571;50.930;6.926;2022-11-10T04:16:44;11.00;99.90
1165;DHT22;571;50.930;6.926;2022-11-10T04:19:13;11.00;99.90
1165;DHT22;571;50.930;6.926;2022-11-10T04:21:40;10.90;99.90
1165;DHT22;571;50.930;6.926;2022-11-10T04:24:07;10.90;99.90
1165;DHT22;571;50.930;6.926;2022-11-10T04:26:34;10.80;99.90
1165;DHT22;571;50.930;6.926;2022-11-10T04:29:04;10.70;99.90
1165;DHT22;571;50.930;6.926;2022-11-10T04:31:34;10.60;99.90
1165;DHT22;571;50.930;6.926;2022-11-10T04:34:02;10.60;99.90
1165;DHT22;571;50.930;6.926;2022-11-10T04:36:34;10.60;99.90
1165;DHT22;571;50.930;6.926;2022-11-10T04:39:01;10.50;99.90
1165;DHT22;571;50.930;6.926;2022-11-10T04:41:29;10.60;99.90
1165;DHT22;571;50.930;6.926;2022-11-10T04:43:56;10.50;99.90
1165;DHT22;571;50.930;6.926;2022-11-10T04:46:26;10.50;99.90
1165;DHT22;571;50.930;6.926;2022-11-10T04:48:54;10.40;99.90
1165;DHT22;571;50.930;6.926;2022-11-10T04:51:23;10.30;99.90
1165;DHT22;571;50.930;6.926;2022-11-10T04:53:51;10.20;99.90
1165;DHT22;571;50.930;6.926;2022-11-10T04:56:20;10.10;99.90
1165;DHT22;571;50.930;6.926;2022-11-10T04:58:48;10.10;99.90
1165;DHT22;571;50.930;6.926;2022-11-10T05:01:16;10.10;99.90
1165;DHT22;571;50.930;6.926;2022-11-10T05:03:43;10.10;99.90
1165;DHT22;571;50.930;6.926;2022-11-10T05:06:11;10.10;99.90
1165;DHT22;571;50.930;6.926;2022-11-10T05:08:38;10.10;99.90
1165;DHT22;571;50.930;6.926;2022-11-10T05:11:07;10.10;99.90
1165;DHT22;571;50.930;6.926;2022-11-10T05:13:33;10.00;99.90
1165;DHT22;571;50.930;6.926;2022-11-10T05:16:00;10.00;99.90
1165;DHT22;571;50.930;6.926;2022-11-10T05:18:27;10.00;99.90
1165;DHT22;571;50.930;6.926;2022-11-10T05:20:54;10.00;99.90
1165;DHT22;571;50.930;6.926;2022-11-10T05:23:21;10.00;99.90
1165;DHT22;571;50.930;6.926;2022-11-10T05:26:11;10.00;99.90
1165;DHT22;571;50.930;6.926;2022-11-10T05:28:39;9.90;99.90
1165;DHT22;571;50.930;6.926;2022-11-10T05:31:06;9.90;99.90
1165;DHT22;571;50.930;6.926;2022-11-10T05:33:33;9.90;99.90
1165;DHT22;571;50.930;6.926;2022-11-10T05:36:00;9.90;99.90
1165;DHT22;571;50.930;6.926;2022-11-10T05:38:27;9.80;99.90
1165;DHT22;571;50.930;6.926;2022-11-10T05:40:54;9.80;99.90
1165;DHT22;571;50.930;6.926;2022-11-10T05:43:22;9.80;99.90
1165;DHT22;571;50.930;6.926;2022-11-10T05:45:49;9.80;99.90
1165;DHT22;571;50.930;6.926;2022-11-10T05:48:16;9.80;99.90
1165;DHT22;571;50.930;6.926;2022-11-10T05:50:43;9.80;99.90
1165;DHT22;571;50.930;6.926;2022-11-10T05:53:10;9.80;99.90
1165;DHT22;571;50.930;6.926;2022-11-10T05:55:37;9.90;99.90
1165;DHT22;571;50.930;6.926;2022-11-10T05:58:04;9.90;99.90
1165;DHT22;571;50.930;6.926;2022-11-10T06:00:32;9.90;99.90
1165;DHT22;571;50.930;6.926;2022-11-10T06:03:01;9.90;99.90
1165;DHT22;571;50.930;6.926;2022-11-10T06:05:29;9.90;99.90
1165;DHT22;571;50.930;6.926;2022-11-10T06:07:57;9.80;99.90
1165;DHT22;571;50.930;6.926;2022-11-10T06:10:24;9.90;99.90
1165;DHT22;571;50.930;6.926;2022-11-10T06:12:51;9.80;99.90
1165;DHT22;571;50.930;6.926;2022-11-10T06:15:18;9.80;99.90
1165;DHT22;571;50.930;6.926;2022-11-10T06:17:46;9.70;99.90
1165;DHT22;571;50.930;6.926;2022-11-10T06:20:14;9.70;99.90
1165;DHT22;571;50.930;6.926;2022-11-10T06:22:41;9.70;99.90
1165;DHT22;571;50.930;6.926;2022-11-10T06:25:09;9.70;99.90
1165;DHT22;571;50.930;6.926;2022-11-10T06:27:36;9.60;99.90
1165;DHT22;571;50.930;6.926;2022-11-10T06:30:03;9.60;99.90
1165;DHT22;571;50.930;6.926;2022-11-10T06:32:32;9.70;99.90
1165;DHT22;571;50.930;6.926;2022-11-10T06:35:00;9.70;99.90
1165;DHT22;571;50.930;6.926;2022-11-10T06:37:27;9.70;99.90
1165;DHT22;571;50.930;6.926;2022-11-10T06:39:54;9.70;99.90
1165;DHT22;571;50.930;6.926;2022-11-10T06:42:20;9.70;99.90
1165;DHT22;571;50.930;6.926;2022-11-10T06:44:47;9.70;99.90
1165;DHT22;571;50.930;6.926;2022-11-10T06:47:14;9.70;99.90
1165;DHT22;571;50.930;6.926;2022-11-10T06:49:41;9.80;99.90
1165;DHT22;571;50.930;6.926;2022-11-10T06:52:09;9.90;99.90
1165;DHT22;571;50.930;6.926;2022-11-10T06:54:36;9.90;99.90
1165;DHT22;571;50.930;6.926;2022-11-10T06:57:03;9.90;99.90
1165;DHT22;571;50.930;6.926;2022-11-10T06:59:29;10.00;99.90
1165;DHT22;571;50.930;6.926;2022-11-10T07:01:56;10.00;99.90
1165;DHT22;571;50.930;6.926;2022-11-10T07:04:23;10.00;99.90
1165;DHT22;571;50.930;6.926;2022-11-10T07:06:50;10.10;99.90
1165;DHT22;571;50.930;6.926;2022-11-10T07:09:18;10.10;99.90
1165;DHT22;571;50.930;6.926;2022-11-10T07:11:44;10.20;99.90
1165;DHT22;571;50.930;6.926;2022-11-10T07:14:11;10.30;99.90
1165;DHT22;571;50.930;6.926;2022-11-10T07:16:38;10.30;99.90
1165;DHT22;571;50.930;6.926;2022-11-10T07:19:05;10.30;99.90
1165;DHT22;571;50.930;6.926;2022-11-10T07:21:31;10.50;99.90
1165;DHT22;571;50.930;6.926;2022-11-10T07:23:58;10.50;99.90
1165;DHT22;571;50.930;6.926;2022-11-10T07:26:26;10.60;99.90
1165;DHT22;571;50.930;6.926;2022-11-10T07:28:53;10.70;99.90
1165;DHT22;571;50.930;6.926;2022-11-10T07:31:19;10.90;99.90
1165;DHT22;571;50.930;6.926;2022-11-10T07:33:46;10.90;99.90
1165;DHT22;571;50.930;6.926;2022-11-10T07:36:13;10.80;99.90
1165;DHT22;571;50.930;6.926;2022-11-10T07:38:40;10.70;99.90
1165;DHT22;571;50.930;6.926;2022-11-10T07:41:07;10.80;99.90
1165;DHT22;571;50.930;6.926;2022-11-10T07:43:35;10.80;99.90
1165;DHT22;571;50.930;6.926;2022-11-10T07:46:02;10.90;99.90
1165;DHT22;571;50.930;6.926;2022-11-10T07:48:28;11.00;99.90
1165;DHT22;571;50.930;6.926;2022-11-10T07:50:55;11.00;99.90
1165;DHT22;571;50.930;6.926;2022-11-10T07:53:22;11.10;99.90
1165;DHT22;571;50.930;6.926;2022-11-10T07:55:49;11.10;99.90
1165;DHT22;571;50.930;6.926;2022-11-10T07:58:16;11.00;99.90
1165;DHT22;571;50.930;6.926;2022-11-10T08:00:45;11.20;99.90
1165;DHT22;571;50.930;6.926;2022-11-10T08:03:14;11.20;99.90
1165;DHT22;571;50.930;6.926;2022-11-10T08:05:41;11.20;99.90
1165;DHT22;571;50.930;6.926;2022-11-10T08:08:09;11.40;99.90
1165;DHT22;571;50.930;6.926;2022-11-10T08:10:36;11.40;99.90
1165;DHT22;571;50.930;6.926;2022-11-10T08:13:05;11.40;99.90
1165;DHT22;571;50.930;6.926;2022-11-10T08:15:33;11.40;99.90
1165;DHT22;571;50.930;6.926;2022-11-10T08:18:02;11.50;99.90
1165;DHT22;571;50.930;6.926;2022-11-10T08:20:30;11.50;99.90
1165;DHT22;571;50.930;6.926;2022-11-10T08:22:58;11.50;99.90
1165;DHT22;571;50.930;6.926;2022-11-10T08:25:25;11.70;99.90
1165;DHT22;571;50.930;6.926;2022-11-10T08:27:57;11.70;99.90
1165;DHT22;571;50.930;6.926;2022-11-10T08:30:24;11.70;99.90
1165;DHT22;571;50.930;6.926;2022-11-10T08:32:53;11.70;99.90
1165;DHT22;571;50.930;6.926;2022-11-10T08:35:22;11.60;99.90
1165;DHT22;571;50.930;6.926;2022-11-10T08:37:49;11.70;99.90
1165;DHT22;571;50.930;6.926;2022-11-10T08:40:16;11.90;99.90
1165;DHT22;571;50.930;6.926;2022-11-10T08:42:44;12.00;99.90
1165;DHT22;571;50.930;6.926;2022-11-10T08:45:11;12.00;99.90
1165;DHT22;571;50.930;6.926;2022-11-10T08:47:38;12.10;99.90
1165;DHT22;571;50.930;6.926;2022-11-10T08:50:06;12.10;99.90
1165;DHT22;571;50.930;6.926;2022-11-10T08:52:34;12.20;99.90
1165;DHT22;571;50.930;6.926;2022-11-10T08:55:01;12.30;99.90
1165;DHT22;571;50.930;6.926;2022-11-10T08:57:27;12.30;99.90
1165;DHT22;571;50.930;6.926;2022-11-10T08:59:54;12.50;99.90
1165;DHT22;571;50.930;6.926;2022-11-10T09:02:23;12.50;99.90
1165;DHT22;571;50.930;6.926;2022-11-10T09:04:49;12.70;99.90
1165;DHT22;571;50.930;6.926;2022-11-10T09:07:18;12.70;99.90
1165;DHT22;571;50.930;6.926;2022-11-10T09:09:47;12.80;99.90
1165;DHT22;571;50.930;6.926;2022-11-10T09:12:14;12.80;99.90
1165;DHT22;571;50.930;6.926;2022-11-10T09:14:41;12.80;99.90
1165;DHT22;571;50.930;6.926;2022-11-10T09:17:08;12.80;99.90
1165;DHT22;571;50.930;6.926;2022-11-10T09:19:35;12.90;99.90
1165;DHT22;571;50.930;6.926;2022-11-10T09:22:01;13.00;99.90
1165;DHT22;571;50.930;6.926;2022-11-10T09:24:28;13.10;99.90
1165;DHT22;571;50.930;6.926;2022-11-10T09:26:56;13.10;99.90
1165;DHT22;571;50.930;6.926;2022-11-10T09:29:23;13.00;99.90
1165;DHT22;571;50.930;6.926;2022-11-10T09:31:50;13.10;99.90
1165;DHT22;571;50.930;6.926;2022-11-10T09:34:17;13.10;99.90
1165;DHT22;571;50.930;6.926;2022-11-10T09:36:43;13.20;99.90
1165;DHT22;571;50.930;6.926;2022-11-10T09:39:10;13.20;99.90
1165;DHT22;571;50.930;6.926;2022-11-10T09:41:42;13.20;99.90
1165;DHT22;571;50.930;6.926;2022-11-10T09:44:14;13.40;99.90
1165;DHT22;571;50.930;6.926;2022-11-10T09:46:49;13.40;99.70
1165;DHT22;571;50.930;6.926;2022-11-10T09:49:28;13.50;99.60
1165;DHT22;571;50.930;6.926;2022-11-10T09:51:59;13.50;99.90
1165;DHT22;571;50.930;6.926;2022-11-10T09:54:33;13.50;99.60
1165;DHT22;571;50.930;6.926;2022-11-10T09:57:04;13.60;99.50
1165;DHT22;571;50.930;6.926;2022-11-10T09:59:33;13.70;99.30
1165;DHT22;571;50.930;6.926;2022-11-10T10:02:03;13.70;99.20
1165;DHT22;571;50.930;6.926;2022-11-10T10:04:50;13.80;99.20
1165;DHT22;571;50.930;6.926;2022-11-10T10:07:23;13.80;99.20
1165;DHT22;571;50.930;6.926;2022-11-10T10:09:54;13.90;99.10
1165;DHT22;571;50.930;6.926;2022-11-10T10:12:37;14.00;99.10
1165;DHT22;571;50.930;6.926;2022-11-10T10:15:20;14.10;98.70
1165;DHT22;571;50.930;6.926;2022-11-10T10:18:01;14.20;98.50
1165;DHT22;571;50.930;6.926;2022-11-10T10:20:37;14.20;98.30
1165;DHT22;571;50.930;6.926;2022-11-10T10:23:16;14.30;98.10
1165;DHT22;571;50.930;6.926;2022-11-10T10:25:48;14.30;98.00
1165;DHT22;571;50.930;6.926;2022-11-10T10:28:22;14.40;98.00
1165;DHT22;571;50.930;6.926;2022-11-10T10:30:53;14.40;97.90
1165;DHT22;571;50.930;6.926;2022-11-10T10:33:21;14.50;97.40
1165;DHT22;571;50.930;6.926;2022-11-10T10:35:49;14.50;97.40
1165;DHT22;571;50.930;6.926;2022-11-10T10:38:22;14.50;97.10
1165;DHT22;571;50.930;6.926;2022-11-10T10:40:52;14.60;97.10
1165;DHT22;571;50.930;6.926;2022-11-10T10:43:22;14.70;96.80
1165;DHT22;571;50.930;6.926;2022-11-10T10:46:05;14.70;96.60
1165;DHT22;571;50.930;6.926;2022-11-10T10:48:32;14.80;96.30
1165;DHT22;571;50.930;6.926;2022-11-10T10:50:58;14.80;96.50
1165;DHT22;571;50.930;6.926;2022-11-10T10:53:25;14.90;96.20
1165;DHT22;571;50.930;6.926;2022-11-10T10:55:56;15.00;95.60
1165;DHT22;571;50.930;6.926;2022-11-10T10:58:26;15.00;95.80
1165;DHT22;571;50.930;6.926;2022-11-10T11:00:58;15.10;95.10
1165;DHT22;571;50.930;6.926;2022-11-10T11:03:36;15.20;95.90
1165;DHT22;571;50.930;6.926;2022-11-10T11:06:06;15.20;95.70
1165;DHT22;571;50.930;6.926;2022-11-10T11:08:34;15.30;95.60
1165;DHT22;571;50.930;6.926;2022-11-10T11:11:07;15.40;95.40
1165;DHT22;571;50.930;6.926;2022-11-10T11:13:35;15.50;95.40
1165;DHT22;571;50.930;6.926;2022-11-10T11:16:04;15.60;94.90
1165;DHT22;571;50.930;6.926;2022-11-10T11:18:34;15.60;95.00
1165;DHT22;571;50.930;6.926;2022-11-10T11:21:08;15.70;95.00
1165;DHT22;571;50.930;6.926;2022-11-10T11:26:49;15.90;94.00
1165;DHT22;571;50.930;6.926;2022-11-10T11:29:33;15.80;93.60
1165;DHT22;571;50.930;6.926;2022-11-10T11:32:16;15.90;93.80
1165;DHT22;571;50.930;6.926;2022-11-10T11:35:09;16.20;94.10
1165;DHT22;571;50.930;6.926;2022-11-10T11:37:49;16.40;93.30
1165;DHT22;571;50.930;6.926;2022-11-10T11:40:25;16.70;92.50
1165;DHT22;571;50.930;6.926;2022-11-10T11:43:01;16.60;92.40
1165;DHT22;571;50.930;6.926;2022-11-10T11:45:42;16.60;92.60
1165;DHT22;571;50.930;6.926;2022-11-10T11:51:15;16.60;92.50
1165;DHT22;571;50.930;6.926;2022-11-10T11:53:58;16.40;92.30
1165;DHT22;571;50.930;6.926;2022-11-10T11:56:30;16.30;92.80
1165;DHT22;571;50.930;6.926;2022-11-10T11:59:08;16.40;92.80
1165;DHT22;571;50.930;6.926;2022-11-10T12:01:49;16.30;92.50
1165;DHT22;571;50.930;6.926;2022-11-10T12:04:41;16.30;93.30
1165;DHT22;571;50.930;6.926;2022-11-10T12:07:22;16.20;92.80
1165;DHT22;571;50.930;6.926;2022-11-10T12:09:54;16.10;92.70
1165;DHT22;571;50.930;6.926;2022-11-10T12:12:32;16.10;93.30
1165;DHT22;571;50.930;6.926;2022-11-10T12:15:07;16.00;93.40
1165;DHT22;571;50.930;6.926;2022-11-10T12:17:43;16.30;93.10
1165;DHT22;571;50.930;6.926;2022-11-10T12:20:24;16.40;92.70
1165;DHT22;571;50.930;6.926;2022-11-10T12:23:00;16.60;92.90
1165;DHT22;571;50.930;6.926;2022-11-10T12:25:35;16.70;92.70
1165;DHT22;571;50.930;6.926;2022-11-10T12:28:12;16.80;92.30
1165;DHT22;571;50.930;6.926;2022-11-10T12:30:42;17.00;92.40
1165;DHT22;571;50.930;6.926;2022-11-10T12:33:15;17.10;92.20
1165;DHT22;571;50.930;6.926;2022-11-10T12:35:46;17.10;91.50
1165;DHT22;571;50.930;6.926;2022-11-10T12:38:20;17.20;91.50
1165;DHT22;571;50.930;6.926;2022-11-10T12:40:53;17.30;91.10
1165;DHT22;571;50.930;6.926;2022-11-10T12:43:29;17.30;91.10
1165;DHT22;571;50.930;6.926;2022-11-10T12:46:00;17.40;90.70
1165;DHT22;571;50.930;6.926;2022-11-10T12:48:35;17.30;90.80
1165;DHT22;571;50.930;6.926;2022-11-10T12:51:08;17.40;90.70
1165;DHT22;571;50.930;6.926;2022-11-10T12:53:41;17.50;91.20
1165;DHT22;571;50.930;6.926;2022-11-10T12:56:15;17.70;90.60
1165;DHT22;571;50.930;6.926;2022-11-10T12:58:44;18.00;90.10
1165;DHT22;571;50.930;6.926;2022-11-10T13:01:13;18.10;89.50
1165;DHT22;571;50.930;6.926;2022-11-10T13:03:53;18.00;88.50
1165;DHT22;571;50.930;6.926;2022-11-10T13:06:25;17.90;88.00
1165;DHT22;571;50.930;6.926;2022-11-10T13:08:54;17.80;88.40
1165;DHT22;571;50.930;6.926;2022-11-10T13:11:25;17.70;86.90
1165;DHT22;571;50.930;6.926;2022-11-10T13:13:55;17.50;88.90
1165;DHT22;571;50.930;6.926;2022-11-10T13:16:45;17.40;88.40
1165;DHT22;571;50.930;6.926;2022-11-10T13:19:46;17.40;87.40
1165;DHT22;571;50.930;6.926;2022-11-10T13:22:28;17.30;87.90
1165;DHT22;571;50.930;6.926;2022-11-10T13:28:02;17.30;88.40
1165;DHT22;571;50.930;6.926;2022-11-10T13:30:37;17.20;88.20
1165;DHT22;571;50.930;6.926;2022-11-10T13:33:29;17.30;88.60
1165;DHT22;571;50.930;6.926;2022-11-10T13:35:56;17.30;87.30
1165;DHT22;571;50.930;6.926;2022-11-10T13:38:34;17.20;88.30
1165;DHT22;571;50.930;6.926;2022-11-10T13:41:26;17.10;87.80
1165;DHT22;571;50.930;6.926;2022-11-10T13:43:55;17.00;88.00
1165;DHT22;571;50.930;6.926;2022-11-10T13:46:32;17.10;88.80
1165;DHT22;571;50.930;6.926;2022-11-10T13:49:29;17.10;88.60
1165;DHT22;571;50.930;6.926;2022-11-10T13:52:08;17.00;86.30
1165;DHT22;571;50.930;6.926;2022-11-10T13:54:57;16.90;88.30
1165;DHT22;571;50.930;6.926;2022-11-10T13:57:28;17.00;86.50
1165;DHT22;571;50.930;6.926;2022-11-10T13:59:59;17.00;89.00
1165;DHT22;571;50.930;6.926;2022-11-10T14:02:46;17.00;86.60
1165;DHT22;571;50.930;6.926;2022-11-10T14:08:45;16.90;84.50
1165;DHT22;571;50.930;6.926;2022-11-10T14:11:35;16.90;88.40
1165;DHT22;571;50.930;6.926;2022-11-10T14:14:11;16.90;88.20
1165;DHT22;571;50.930;6.926;2022-11-10T14:16:41;16.70;87.30
1165;DHT22;571;50.930;6.926;2022-11-10T14:19:35;16.60;86.90
1165;DHT22;571;50.930;6.926;2022-11-10T14:22:09;16.50;87.90
1165;DHT22;571;50.930;6.926;2022-11-10T14:24:47;16.60;88.90
1165;DHT22;571;50.930;6.926;2022-11-10T14:27:21;16.70;86.30
1165;DHT22;571;50.930;6.926;2022-11-10T14:30:02;16.60;87.00
1165;DHT22;571;50.930;6.926;2022-11-10T14:32:31;16.80;86.50
1165;DHT22;571;50.930;6.926;2022-11-10T14:34:57;16.80;86.10
1165;DHT22;571;50.930;6.926;2022-11-10T14:37:27;16.70;85.60
1165;DHT22;571;50.930;6.926;2022-11-10T14:39:57;16.60;84.90
1165;DHT22;571;50.930;6.926;2022-11-10T14:42:25;16.70;85.50
1165;DHT22;571;50.930;6.926;2022-11-10T14:45:10;16.60;85.80
1165;DHT22;571;50.930;6.926;2022-11-10T14:47:41;16.50;86.30
1165;DHT22;571;50.930;6.926;2022-11-10T14:50:17;16.40;87.30
1165;DHT22;571;50.930;6.926;2022-11-10T14:52:46;16.50;88.20
1165;DHT22;571;50.930;6.926;2022-11-10T14:55:16;16.50;88.50
1165;DHT22;571;50.930;6.926;2022-11-10T14:57:47;16.50;87.90
1165;DHT22;571;50.930;6.926;2022-11-10T15:00:17;16.50;86.00
1165;DHT22;571;50.930;6.926;2022-11-10T15:02:45;16.50;86.10
1165;DHT22;571;50.930;6.926;2022-11-10T15:05:13;16.40;86.70
1165;DHT22;571;50.930;6.926;2022-11-10T15:07:42;16.40;85.30
1165;DHT22;571;50.930;6.926;2022-11-10T15:10:14;16.40;85.90
1165;DHT22;571;50.930;6.926;2022-11-10T15:12:41;16.20;86.90
1165;DHT22;571;50.930;6.926;2022-11-10T15:15:19;16.20;87.00
1165;DHT22;571;50.930;6.926;2022-11-10T15:17:49;16.10;87.50
1165;DHT22;571;50.930;6.926;2022-11-10T15:20:36;16.10;89.50
1165;DHT22;571;50.930;6.926;2022-11-10T15:23:05;16.10;89.20
1165;DHT22;571;50.930;6.926;2022-11-10T15:25:39;16.00;90.10
1165;DHT22;571;50.930;6.926;2022-11-10T15:28:20;15.90;90.20
1165;DHT22;571;50.930;6.926;2022-11-10T15:30:50;15.80;90.20
1165;DHT22;571;50.930;6.926;2022-11-10T15:33:24;15.80;90.70
1165;DHT22;571;50.930;6.926;2022-11-10T15:35:52;15.80;90.90
1165;DHT22;571;50.930;6.926;2022-11-10T15:38:29;15.90;91.20
1165;DHT22;571;50.930;6.926;2022-11-10T15:41:22;15.80;91.00
1165;DHT22;571;50.930;6.926;2022-11-10T15:43:49;15.80;91.50
1165;DHT22;571;50.930;6.926;2022-11-10T15:46:17;15.70;91.70
1165;DHT22;571;50.930;6.926;2022-11-10T15:48:48;15.70;91.90
1165;DHT22;571;50.930;6.926;2022-11-10T15:51:18;15.80;91.80
1165;DHT22;571;50.930;6.926;2022-11-10T15:53:47;15.70;91.90
1165;DHT22;571;50.930;6.926;2022-11-10T15:56:21;15.70;91.80
1165;DHT22;571;50.930;6.926;2022-11-10T15:58:49;15.60;92.10
1165;DHT22;571;50.930;6.926;2022-11-10T16:01:19;15.60;92.40
1165;DHT22;571;50.930;6.926;2022-11-10T16:03:47;15.50;92.80
1165;DHT22;571;50.930;6.926;2022-11-10T16:06:14;15.50;93.00
1165;DHT22;571;50.930;6.926;2022-11-10T16:08:42;15.50;93.00
1165;DHT22;571;50.930;6.926;2022-11-10T16:11:12;15.50;93.60
1165;DHT22;571;50.930;6.926;2022-11-10T16:13:42;15.50;93.60
1165;DHT22;571;50.930;6.926;2022-11-10T16:16:10;15.40;93.80
1165;DHT22;571;50.930;6.926;2022-11-10T16:18:38;15.20;94.20
1165;DHT22;571;50.930;6.926;2022-11-10T16:21:10;15.20;94.20
1165;DHT22;571;50.930;6.926;2022-11-10T16:23:38;15.20;94.30
1165;DHT22;571;50.930;6.926;2022-11-10T16:26:04;15.20;94.30
1165;DHT22;571;50.930;6.926;2022-11-10T16:28:32;15.10;94.40
1165;DHT22;571;50.930;6.926;2022-11-10T16:30:59;15.00;94.70
1165;DHT22;571;50.930;6.926;2022-11-10T16:33:25;14.90;94.60
1165;DHT22;571;50.930;6.926;2022-11-10T16:35:54;15.00;94.70
1165;DHT22;571;50.930;6.926;2022-11-10T16:38:24;14.90;94.90
1165;DHT22;571;50.930;6.926;2022-11-10T16:40:55;14.90;94.70
1165;DHT22;571;50.930;6.926;2022-11-10T16:43:22;14.80;94.80
1165;DHT22;571;50.930;6.926;2022-11-10T16:45:51;14.80;95.00
1165;DHT22;571;50.930;6.926;2022-11-10T16:48:21;14.70;95.10
1165;DHT22;571;50.930;6.926;2022-11-10T16:50:50;14.80;94.90
1165;DHT22;571;50.930;6.926;2022-11-10T16:53:22;14.70;95.00
1165;DHT22;571;50.930;6.926;2022-11-10T16:55:50;14.60;95.20
1165;DHT22;571;50.930;6.926;2022-11-10T16:58:17;14.50;95.30
1165;DHT22;571;50.930;6.926;2022-11-10T17:00:44;14.40;95.60
1165;DHT22;571;50.930;6.926;2022-11-10T17:03:15;14.20;95.70
1165;DHT22;571;50.930;6.926;2022-11-10T17:05:43;14.30;95.80
1165;DHT22;571;50.930;6.926;2022-11-10T17:08:18;14.20;95.80
1165;DHT22;571;50.930;6.926;2022-11-10T17:10:47;14.10;96.10
1165;DHT22;571;50.930;6.926;2022-11-10T17:13:14;14.00;95.90
1165;DHT22;571;50.930;6.926;2022-11-10T17:15:41;14.10;95.90
1165;DHT22;571;50.930;6.926;2022-11-10T17:18:10;14.10;95.70
1165;DHT22;571;50.930;6.926;2022-11-10T17:20:41;14.10;95.60
1165;DHT22;571;50.930;6.926;2022-11-10T17:23:12;14.20;95.60
1165;DHT22;571;50.930;6.926;2022-11-10T17:25:40;14.20;95.50
1165;DHT22;571;50.930;6.926;2022-11-10T17:28:11;14.20;95.30
1165;DHT22;571;50.930;6.926;2022-11-10T17:30:38;14.10;95.40
1165;DHT22;571;50.930;6.926;2022-11-10T17:33:05;14.20;95.40
1165;DHT22;571;50.930;6.926;2022-11-10T17:35:32;14.10;95.50
1165;DHT22;571;50.930;6.926;2022-11-10T17:37:59;14.10;95.20
1165;DHT22;571;50.930;6.926;2022-11-10T17:40:27;14.10;95.30
1165;DHT22;571;50.930;6.926;2022-11-10T17:42:54;13.90;95.30
1165;DHT22;571;50.930;6.926;2022-11-10T17:45:24;13.80;95.80
1165;DHT22;571;50.930;6.926;2022-11-10T17:47:51;13.70;95.90
1165;DHT22;571;50.930;6.926;2022-11-10T17:50:19;13.70;95.90
1165;DHT22;571;50.930;6.926;2022-11-10T17:52:47;13.70;95.80
1165;DHT22;571;50.930;6.926;2022-11-10T17:55:16;13.70;96.00
1165;DHT22;571;50.930;6.926;2022-11-10T17:57:44;13.70;95.90
1165;DHT22;571;50.930;6.926;2022-11-10T18:00:12;13.60;96.00
1165;DHT22;571;50.930;6.926;2022-11-10T18:02:40;13.70;95.90
1165;DHT22;571;50.930;6.926;2022-11-10T18:05:09;13.70;95.70
1165;DHT22;571;50.930;6.926;2022-11-10T18:07:36;13.70;95.80
1165;DHT22;571;50.930;6.926;2022-11-10T18:10:04;13.60;96.00
1165;DHT22;571;50.930;6.926;2022-11-10T18:12:31;13.50;96.30
1165;DHT22;571;50.930;6.926;2022-11-10T18:14:57;13.30;96.40
1165;DHT22;571;50.930;6.926;2022-11-10T18:17:24;13.30;96.50
1165;DHT22;571;50.930;6.926;2022-11-10T18:19:53;13.40;96.30
1165;DHT22;571;50.930;6.926;2022-11-10T18:22:20;13.30;96.60
1165;DHT22;571;50.930;6.926;2022-11-10T18:24:46;13.30;96.60
1165;DHT22;571;50.930;6.926;2022-11-10T18:27:13;13.10;96.90
1165;DHT22;571;50.930;6.926;2022-11-10T18:29:40;13.20;96.90
1165;DHT22;571;50.930;6.926;2022-11-10T18:32:07;13.20;96.80
1165;DHT22;571;50.930;6.926;2022-11-10T18:34:33;13.20;96.90
1165;DHT22;571;50.930;6.926;2022-11-10T18:37:01;13.20;96.70
1165;DHT22;571;50.930;6.926;2022-11-10T18:39:28;13.20;96.70
1165;DHT22;571;50.930;6.926;2022-11-10T18:41:55;13.30;96.50
1165;DHT22;571;50.930;6.926;2022-11-10T18:44:22;13.40;96.30
1165;DHT22;571;50.930;6.926;2022-11-10T18:46:49;13.30;96.40
1165;DHT22;571;50.930;6.926;2022-11-10T18:49:15;13.30;96.60
1165;DHT22;571;50.930;6.926;2022-11-10T18:51:42;13.30;96.50
1165;DHT22;571;50.930;6.926;2022-11-10T18:54:11;13.30;96.50
1165;DHT22;571;50.930;6.926;2022-11-10T18:56:37;13.40;96.20
1165;DHT22;571;50.930;6.926;2022-11-10T18:59:04;13.20;96.50
1165;DHT22;571;50.930;6.926;2022-11-10T19:01:31;13.20;96.60
1165;DHT22;571;50.930;6.926;2022-11-10T19:03:58;13.10;96.90
1165;DHT22;571;50.930;6.926;2022-11-10T19:06:25;13.00;96.70
1165;DHT22;571;50.930;6.926;2022-11-10T19:08:52;13.00;96.80
1165;DHT22;571;50.930;6.926;2022-11-10T19:11:22;13.00;96.80
1165;DHT22;571;50.930;6.926;2022-11-10T19:13:48;12.90;97.30
1165;DHT22;571;50.930;6.926;2022-11-10T19:16:16;12.80;97.50
1165;DHT22;571;50.930;6.926;2022-11-10T19:18:43;12.70;97.60
1165;DHT22;571;50.930;6.926;2022-11-10T19:21:12;12.90;97.10
1165;DHT22;571;50.930;6.926;2022-11-10T19:23:39;12.90;96.90
1165;DHT22;571;50.930;6.926;2022-11-10T19:26:08;12.90;96.90
1165;DHT22;571;50.930;6.926;2022-11-10T19:28:39;12.90;97.10
1165;DHT22;571;50.930;6.926;2022-11-10T19:31:09;12.80;97.40
1165;DHT22;571;50.930;6.926;2022-11-10T19:33:38;12.70;97.40
1165;DHT22;571;50.930;6.926;2022-11-10T19:36:06;12.90;97.10
1165;DHT22;571;50.930;6.926;2022-11-10T19:38:35;13.00;96.80
1165;DHT22;571;50.930;6.926;2022-11-10T19:41:03;12.70;97.30
1165;DHT22;571;50.930;6.926;2022-11-10T19:43:30;12.60;97.90
1165;DHT22;571;50.930;6.926;2022-11-10T19:46:01;12.40;98.10
1165;DHT22;571;50.930;6.926;2022-11-10T19:48:31;12.50;98.00
1165;DHT22;571;50.930;6.926;2022-11-10T19:51:02;12.30;98.30
1165;DHT22;571;50.930;6.926;2022-11-10T19:53:29;12.10;98.80
1165;DHT22;571;50.930;6.926;2022-11-10T19:55:59;12.00;99.10
1165;DHT22;571;50.930;6.926;2022-11-10T19:58:26;12.00;99.00
1165;DHT22;571;50.930;6.926;2022-11-10T20:00:53;11.90;99.20
1165;DHT22;571;50.930;6.926;2022-11-10T20:03:22;11.90;99.10
1165;DHT22;571;50.930;6.926;2022-11-10T20:05:57;12.00;99.00
1165;DHT22;571;50.930;6.926;2022-11-10T20:08:25;12.20;98.60
1165;DHT22;571;50.930;6.926;2022-11-10T20:10:52;12.30;98.40
1165;DHT22;571;50.930;6.926;2022-11-10T20:13:19;12.30;98.20
1165;DHT22;571;50.930;6.926;2022-11-10T20:15:45;12.40;98.10
1165;DHT22;571;50.930;6.926;2022-11-10T20:18:12;12.40;98.00
1165;DHT22;571;50.930;6.926;2022-11-10T20:20:40;12.30;98.20
1165;DHT22;571;50.930;6.926;2022-11-10T20:23:09;12.20;98.50
1165;DHT22;571;50.930;6.926;2022-11-10T20:25:37;12.10;98.70
1165;DHT22;571;50.930;6.926;2022-11-10T20:28:04;12.20;98.40
1165;DHT22;571;50.930;6.926;2022-11-10T20:30:33;12.30;98.10
1165;DHT22;571;50.930;6.926;2022-11-10T20:33:00;12.20;98.50
1165;DHT22;571;50.930;6.926;2022-11-10T20:35:27;12.10;98.70
1165;DHT22;571;50.930;6.926;2022-11-10T20:37:55;12.00;99.20